createdAt,value
2022-08-11T00:02:28.455Z,102586.25
2022-08-11T00:04:58.286Z,102589.97
2022-08-11T00:07:29.221Z,102584.75
2022-08-11T00:09:57.718Z,102580.59
2022-08-11T00:12:27.650Z,102585.72
2022-08-11T00:15:00.285Z,102585.91
2022-08-11T00:17:30.100Z,102595.03
2022-08-11T00:20:15.463Z,102583.59
2022-08-11T00:22:48.378Z,102584.63
2022-08-11T00:25:17.740Z,102579.44
2022-08-11T00:27:46.018Z,102581.31
2022-08-11T00:30:14.944Z,102576.09
2022-08-11T00:32:44.954Z,102587.09
2022-08-11T00:35:56.478Z,102582.72
2022-08-11T00:38:07.654Z,102574.81
2022-08-11T00:40:49.525Z,102571.66
2022-08-11T00:43:24.804Z,102582.59
2022-08-11T00:46:09.969Z,102579.28
2022-08-11T00:48:46.244Z,102572.22
2022-08-11T00:51:26.617Z,102575.13
2022-08-11T00:54:40.549Z,102573.44
2022-08-11T00:57:37.780Z,102571.97
2022-08-11T01:00:13.768Z,102578.75
2022-08-11T01:03:08.106Z,102586.19
2022-08-11T01:05:47.005Z,102572.91
2022-08-11T01:08:52.373Z,102576.19
2022-08-11T01:11:57.404Z,102579.41
2022-08-11T01:14:51.977Z,102569.22
2022-08-11T01:18:05.029Z,102565.25
2022-08-11T01:21:07.746Z,102568.50
2022-08-11T01:24:09.094Z,102568.88
2022-08-11T01:27:19.056Z,102570.28
2022-08-11T01:30:18.749Z,102569.34
2022-08-11T01:33:09.486Z,102573.25
2022-08-11T01:35:56.469Z,102569.94
2022-08-11T01:39:05.350Z,102566.59
2022-08-11T01:42:14.788Z,102569.84
2022-08-11T01:45:07.872Z,102569.00
2022-08-11T01:47:54.352Z,102575.41
2022-08-11T01:50:29.732Z,102571.69
2022-08-11T01:53:12.658Z,102564.66
2022-08-11T01:55:50.821Z,102567.06
2022-08-11T01:58:40.715Z,102566.78
2022-08-11T02:01:21.544Z,102570.84
2022-08-11T02:03:57.918Z,102566.31
2022-08-11T02:06:53.807Z,102555.56
2022-08-11T02:09:34.019Z,102560.94
2022-08-11T02:12:14.101Z,102568.16
2022-08-11T02:14:53.448Z,102560.09
2022-08-11T02:17:42.553Z,102561.97
2022-08-11T02:20:36.901Z,102558.16
2022-08-11T02:24:04.030Z,102556.03
2022-08-11T02:26:24.549Z,102564.19
2022-08-11T02:29:04.583Z,102557.84
2022-08-11T02:32:24.831Z,102555.63
2022-08-11T02:35:00.837Z,102559.94
2022-08-11T02:37:38.281Z,102557.53
2022-08-11T02:40:17.382Z,102564.66
2022-08-11T02:43:01.973Z,102562.03
2022-08-11T02:45:54.387Z,102564.97
2022-08-11T02:48:53.172Z,102558.66
2022-08-11T02:51:30.979Z,102560.41
2022-08-11T02:54:08.490Z,102569.81
2022-08-11T02:56:44.811Z,102568.50
2022-08-11T02:59:43.379Z,102565.50
2022-08-11T03:02:23.362Z,102569.28
2022-08-11T03:05:03.791Z,102576.34
2022-08-11T03:07:37.147Z,102574.22
2022-08-11T03:10:11.492Z,102563.31
2022-08-11T03:13:07.753Z,102560.34
2022-08-11T03:16:07.450Z,102562.03
2022-08-11T03:18:42.127Z,102556.19
2022-08-11T03:21:18.714Z,102552.00
2022-08-11T03:23:56.808Z,102556.38
2022-08-11T03:26:29.701Z,102562.75
2022-08-11T03:29:07.553Z,102562.94
2022-08-11T03:31:45.412Z,102557.72
2022-08-11T03:34:18.254Z,102563.44
2022-08-11T03:37:17.506Z,102556.75
2022-08-11T03:40:00.923Z,102556.09
2022-08-11T03:42:42.534Z,102559.31
2022-08-11T03:45:22.609Z,102551.78
2022-08-11T03:48:01.842Z,102551.13
2022-08-11T03:51:06.313Z,102557.50
2022-08-11T03:53:49.277Z,102556.00
2022-08-11T03:56:58.758Z,102555.00
2022-08-11T04:00:07.893Z,102552.63
2022-08-11T04:03:15.782Z,102556.44
2022-08-11T04:06:22.048Z,102551.22
2022-08-11T04:09:23.402Z,102561.25
2022-08-11T04:12:14.827Z,102563.03
2022-08-11T04:15:44.541Z,102558.63
2022-08-11T04:18:32.000Z,102561.22
2022-08-11T04:21:42.033Z,102556.75
2022-08-11T04:24:39.557Z,102552.44
2022-08-11T04:27:37.315Z,102559.34
2022-08-11T04:30:11.951Z,102551.97
2022-08-11T04:33:04.849Z,102552.00
2022-08-11T04:35:48.618Z,102554.69
2022-08-11T04:38:39.442Z,102547.88
2022-08-11T04:41:32.965Z,102554.66
2022-08-11T04:44:26.665Z,102551.28
2022-08-11T04:47:05.950Z,102557.03
2022-08-11T04:50:35.449Z,102546.44
2022-08-11T04:53:33.077Z,102545.75
2022-08-11T04:56:26.441Z,102551.28
2022-08-11T04:59:40.354Z,102551.69
2022-08-11T05:02:42.545Z,102549.63
2022-08-11T05:05:32.346Z,102552.75
2022-08-11T05:08:41.325Z,102556.56
2022-08-11T05:11:44.956Z,102554.88
2022-08-11T05:14:48.138Z,102538.38
2022-08-11T05:17:40.496Z,102547.41
2022-08-11T05:20:29.284Z,102545.50
2022-08-11T05:23:19.514Z,102550.59
2022-08-11T05:26:44.596Z,102554.47
2022-08-11T05:29:20.306Z,102556.63
2022-08-11T05:32:17.441Z,102551.63
2022-08-11T05:34:51.074Z,102554.13
2022-08-11T05:37:27.292Z,102554.50
2022-08-11T05:40:19.609Z,102568.81
2022-08-11T05:43:09.098Z,102555.69
2022-08-11T05:46:02.510Z,102550.41
2022-08-11T05:48:52.749Z,102551.50
2022-08-11T05:51:38.950Z,102551.75
2022-08-11T05:54:29.630Z,102544.75
2022-08-11T05:56:59.539Z,102552.25
2022-08-11T05:59:29.223Z,102547.56
2022-08-11T06:02:02.902Z,102546.84
2022-08-11T06:04:31.474Z,102559.75
2022-08-11T06:07:02.756Z,102556.44
2022-08-11T06:09:34.637Z,102557.50
2022-08-11T06:12:05.022Z,102556.78
2022-08-11T06:14:34.917Z,102552.44
2022-08-11T06:17:05.474Z,102549.69
2022-08-11T06:19:39.536Z,102556.47
2022-08-11T06:22:11.063Z,102556.22
2022-08-11T06:24:41.592Z,102547.47
2022-08-11T06:27:13.977Z,102550.53
2022-08-11T06:29:54.840Z,102551.88
2022-08-11T06:32:27.421Z,102547.03
2022-08-11T06:35:15.408Z,102544.47
2022-08-11T06:37:58.926Z,102549.22
2022-08-11T06:40:36.668Z,102550.78
2022-08-11T06:43:16.342Z,102551.28
2022-08-11T06:45:52.714Z,102545.41
2022-08-11T06:48:24.176Z,102556.72
2022-08-11T06:51:11.663Z,102548.38
2022-08-11T06:53:44.265Z,102552.50
2022-08-11T06:57:01.681Z,102548.16
2022-08-11T07:00:12.597Z,102551.16
2022-08-11T07:02:50.117Z,102555.09
2022-08-11T07:05:23.526Z,102553.66
2022-08-11T07:08:41.909Z,102549.50
2022-08-11T07:11:57.346Z,102542.91
2022-08-11T07:14:46.165Z,102544.59
2022-08-11T07:17:21.387Z,102543.94
2022-08-11T07:20:11.407Z,102544.66
2022-08-11T07:23:04.731Z,102545.84
2022-08-11T07:25:52.722Z,102540.41
2022-08-11T07:28:42.892Z,102544.78
2022-08-11T07:31:13.982Z,102541.00
2022-08-11T07:34:07.300Z,102531.38
2022-08-11T07:36:35.141Z,102543.25
2022-08-11T07:39:04.988Z,102546.31
2022-08-11T07:41:35.927Z,102540.56
2022-08-11T07:44:09.831Z,102541.09
2022-08-11T07:46:59.674Z,102541.47
2022-08-11T07:49:47.849Z,102537.50
2022-08-11T07:52:32.230Z,102531.94
2022-08-11T07:55:03.535Z,102532.50
2022-08-11T07:58:13.609Z,102532.28
2022-08-11T08:00:56.262Z,102545.00
2022-08-11T08:03:54.332Z,102538.19
2022-08-11T08:06:41.342Z,102533.56
2022-08-11T08:09:27.877Z,102535.00
2022-08-11T08:12:14.718Z,102535.16
2022-08-11T08:15:01.247Z,102542.81
2022-08-11T08:18:20.903Z,102538.19
2022-08-11T08:20:39.406Z,102540.84
2022-08-11T08:23:08.017Z,102539.84
2022-08-11T08:25:38.200Z,102542.97
2022-08-11T08:28:10.757Z,102538.09
2022-08-11T08:30:47.509Z,102528.69
2022-08-11T08:33:18.296Z,102538.38
2022-08-11T08:35:55.839Z,102545.50
2022-08-11T08:38:24.159Z,102551.56
2022-08-11T08:40:56.594Z,102545.59
2022-08-11T08:43:26.516Z,102542.47
2022-08-11T08:45:58.273Z,102537.00
2022-08-11T08:48:27.381Z,102533.31
2022-08-11T08:51:20.063Z,102541.88
2022-08-11T08:53:53.444Z,102534.06
2022-08-11T08:56:29.172Z,102533.22
2022-08-11T08:59:01.906Z,102536.25
2022-08-11T09:01:31.566Z,102533.63
2022-08-11T09:04:04.632Z,102532.44
2022-08-11T09:06:40.084Z,102529.00
2022-08-11T09:09:09.195Z,102531.25
2022-08-11T09:11:53.542Z,102530.16
2022-08-11T09:14:25.358Z,102529.56
2022-08-11T09:16:54.552Z,102528.16
2022-08-11T09:19:22.674Z,102535.41
2022-08-11T09:22:13.294Z,102524.47
2022-08-11T09:24:58.800Z,102526.41
2022-08-11T09:27:27.657Z,102524.63
2022-08-11T09:29:57.171Z,102520.34
2022-08-11T09:32:25.112Z,102512.56
2022-08-11T09:34:54.308Z,102515.25
2022-08-11T09:37:55.779Z,102510.31
2022-08-11T09:40:31.405Z,102508.88
2022-08-11T09:43:21.271Z,102515.06
2022-08-11T09:45:52.369Z,102509.75
2022-08-11T09:48:20.762Z,102500.25
2022-08-11T09:50:51.446Z,102505.38
2022-08-11T09:53:35.279Z,102493.47
2022-08-11T09:56:28.847Z,102490.78
2022-08-11T09:58:56.698Z,102488.53
2022-08-11T10:01:31.130Z,102487.88
2022-08-11T10:04:01.898Z,102483.47
2022-08-11T10:06:54.403Z,102487.47
2022-08-11T10:09:25.352Z,102492.69
2022-08-11T10:11:58.020Z,102482.09
2022-08-11T10:14:45.181Z,102479.78
2022-08-11T10:17:17.112Z,102472.63
2022-08-11T10:20:02.000Z,102473.63
2022-08-11T10:22:50.328Z,102477.25
2022-08-11T10:25:35.471Z,102474.94
2022-08-11T10:28:29.011Z,102469.97
2022-08-11T10:31:13.639Z,102469.22
2022-08-11T10:34:01.586Z,102461.53
2022-08-11T10:36:30.828Z,102462.94
2022-08-11T10:39:00.344Z,102461.25
2022-08-11T10:42:08.550Z,102466.03
2022-08-11T10:44:39.125Z,102458.97
2022-08-11T10:47:25.425Z,102458.97
2022-08-11T10:50:09.794Z,102456.25
2022-08-11T10:52:56.196Z,102462.34
2022-08-11T10:55:42.537Z,102461.72
2022-08-11T10:58:28.466Z,102456.28
2022-08-11T11:00:58.782Z,102455.03
2022-08-11T11:03:27.860Z,102455.66
2022-08-11T11:06:28.729Z,102453.50
2022-08-11T11:08:58.768Z,102459.75
2022-08-11T11:11:51.474Z,102450.41
2022-08-11T11:14:46.770Z,102454.69
2022-08-11T11:17:38.881Z,102449.94
2022-08-11T11:20:08.885Z,102453.44
2022-08-11T11:23:04.481Z,102447.78
2022-08-11T11:26:05.598Z,102458.31
2022-08-11T11:28:47.989Z,102459.09
2022-08-11T11:31:31.797Z,102459.38
2022-08-11T11:34:15.480Z,102453.50
2022-08-11T11:36:48.556Z,102452.47
2022-08-11T11:39:21.365Z,102459.47
2022-08-11T11:41:50.638Z,102448.28
2022-08-11T11:44:19.057Z,102461.19
2022-08-11T11:46:47.093Z,102460.34
2022-08-11T11:49:18.531Z,102456.78
2022-08-11T11:51:50.058Z,102453.97
2022-08-11T11:54:23.681Z,102447.94
2022-08-11T11:56:53.377Z,102448.22
2022-08-11T11:59:40.146Z,102448.50
2022-08-11T12:02:12.223Z,102447.09
2022-08-11T12:04:43.441Z,102446.03
2022-08-11T12:07:29.980Z,102435.97
2022-08-11T12:10:00.151Z,102435.13
2022-08-11T12:12:45.626Z,102429.91
2022-08-11T12:15:14.168Z,102427.44
2022-08-11T12:17:42.035Z,102429.09
2022-08-11T12:20:32.146Z,102441.72
2022-08-11T12:23:16.015Z,102435.97
2022-08-11T12:26:26.330Z,102436.50
2022-08-11T12:28:52.056Z,102430.19
2022-08-11T12:31:25.813Z,102429.09
2022-08-11T12:33:53.845Z,102429.63
2022-08-11T12:36:23.129Z,102413.16
2022-08-11T12:38:52.852Z,102422.19
2022-08-11T12:41:40.821Z,102412.63
2022-08-11T12:44:29.597Z,102410.72
2022-08-11T12:47:00.589Z,102408.22
2022-08-11T12:49:49.188Z,102408.47
2022-08-11T12:52:23.221Z,102393.88
2022-08-11T12:54:57.546Z,102405.94
2022-08-11T12:57:49.576Z,102400.72
2022-08-11T13:00:36.161Z,102405.41
2022-08-11T13:03:24.191Z,102397.69
2022-08-11T13:05:56.631Z,102401.00
2022-08-11T13:08:25.885Z,102400.25
2022-08-11T13:11:14.296Z,102387.94
2022-08-11T13:13:55.353Z,102394.47
2022-08-11T13:16:26.168Z,102393.88
2022-08-11T13:18:54.484Z,102393.91
2022-08-11T13:21:23.265Z,102385.13
2022-08-11T13:23:59.640Z,102389.78
2022-08-11T13:26:47.075Z,102382.38
2022-08-11T13:29:25.236Z,102389.56
2022-08-11T13:31:55.845Z,102382.44
2022-08-11T13:34:26.681Z,102384.34
2022-08-11T13:36:56.767Z,102381.88
2022-08-11T13:39:26.935Z,102371.44
2022-08-11T13:41:56.772Z,102376.09
2022-08-11T13:44:28.318Z,102375.81
2022-08-11T13:46:58.494Z,102390.66
2022-08-11T13:49:27.468Z,102371.16
2022-08-11T13:51:56.573Z,102369.25
2022-08-11T13:54:27.825Z,102376.69
2022-08-11T13:56:57.913Z,102368.19
2022-08-11T13:59:30.979Z,102364.34
2022-08-11T14:02:22.744Z,102363.53
2022-08-11T14:04:56.066Z,102353.91
2022-08-11T14:07:26.498Z,102355.56
2022-08-11T14:09:59.559Z,102356.09
2022-08-11T14:12:46.892Z,102342.97
2022-08-11T14:15:20.702Z,102339.41
2022-08-11T14:17:53.294Z,102343.78
2022-08-11T14:20:39.450Z,102339.09
2022-08-11T14:23:10.820Z,102341.56
2022-08-11T14:26:02.305Z,102339.13
2022-08-11T14:28:38.814Z,102328.09
2022-08-11T14:31:11.274Z,102334.97
2022-08-11T14:34:00.574Z,102335.53
2022-08-11T14:36:29.610Z,102336.34
2022-08-11T14:38:57.821Z,102333.84
2022-08-11T14:42:11.119Z,102335.47
2022-08-11T14:44:50.351Z,102331.34
2022-08-11T14:47:23.843Z,102334.13
2022-08-11T14:50:09.628Z,102338.50
2022-08-11T14:52:39.336Z,102334.94
2022-08-11T14:55:35.333Z,102328.09
2022-08-11T14:58:04.254Z,102338.22
2022-08-11T15:00:34.089Z,102336.09
2022-08-11T15:03:13.695Z,102328.44
2022-08-11T15:05:52.446Z,102335.81
2022-08-11T15:08:42.276Z,102333.09
2022-08-11T15:11:32.182Z,102331.69
2022-08-11T15:14:00.915Z,102330.56
2022-08-11T15:16:46.983Z,102328.94
2022-08-11T15:19:19.535Z,102314.69
2022-08-11T15:22:05.089Z,102314.13
2022-08-11T15:24:35.454Z,102322.66
2022-08-11T15:27:24.233Z,102319.38
2022-08-11T15:30:17.588Z,102309.47
2022-08-11T15:33:17.397Z,102308.63
2022-08-11T15:36:03.905Z,102310.03
2022-08-11T15:38:36.129Z,102311.38
2022-08-11T15:41:23.670Z,102314.69
2022-08-11T15:44:13.141Z,102306.19
2022-08-11T15:46:43.345Z,102303.16
2022-08-11T15:49:21.834Z,102307.28
2022-08-11T15:52:01.934Z,102307.81
2022-08-11T15:54:32.938Z,102303.44
2022-08-11T15:57:02.579Z,102300.69
2022-08-11T15:59:52.136Z,102307.00
2022-08-11T16:02:41.549Z,102296.59
2022-08-11T16:05:14.081Z,102298.22
2022-08-11T16:08:03.935Z,102300.69
2022-08-11T16:10:33.005Z,102300.09
2022-08-11T16:13:17.302Z,102296.81
2022-08-11T16:16:09.926Z,102297.41
2022-08-11T16:18:43.900Z,102291.34
2022-08-11T16:21:26.037Z,102288.56
2022-08-11T16:24:07.614Z,102292.91
2022-08-11T16:27:07.852Z,102286.31
2022-08-11T16:29:28.550Z,102281.41
2022-08-11T16:32:14.892Z,102282.78
2022-08-11T16:35:02.609Z,102278.63
2022-08-11T16:37:49.322Z,102282.22
2022-08-11T16:40:20.670Z,102279.72
2022-08-11T16:43:10.912Z,102288.38
2022-08-11T16:45:58.213Z,102278.25
2022-08-11T16:48:33.480Z,102274.63
2022-08-11T16:51:06.113Z,102277.34
2022-08-11T16:53:59.593Z,102273.22
2022-08-11T16:56:25.984Z,102272.31
2022-08-11T16:59:15.333Z,102271.69
2022-08-11T17:01:46.434Z,102277.69
2022-08-11T17:04:38.940Z,102268.94
2022-08-11T17:07:41.736Z,102269.06
2022-08-11T17:10:50.764Z,102270.84
2022-08-11T17:13:28.974Z,102269.44
2022-08-11T17:16:12.756Z,102265.34
2022-08-11T17:18:52.406Z,102262.56
2022-08-11T17:21:22.981Z,102255.31
2022-08-11T17:23:54.800Z,102253.63
2022-08-11T17:26:27.781Z,102262.03
2022-08-11T17:29:00.234Z,102262.50
2022-08-11T17:31:47.392Z,102253.13
2022-08-11T17:34:32.752Z,102253.28
2022-08-11T17:37:01.084Z,102256.22
2022-08-11T17:39:32.515Z,102248.47
2022-08-11T17:42:18.770Z,102246.78
2022-08-11T17:45:06.812Z,102244.31
2022-08-11T17:47:52.817Z,102242.09
2022-08-11T17:50:21.155Z,102250.47
2022-08-11T17:53:07.089Z,102256.13
2022-08-11T17:55:54.333Z,102247.88
2022-08-11T17:58:41.966Z,102240.09
2022-08-11T18:01:12.653Z,102236.00
2022-08-11T18:03:53.024Z,102238.91
2022-08-11T18:06:34.004Z,102242.41
2022-08-11T18:09:22.561Z,102235.78
2022-08-11T18:12:11.515Z,102242.59
2022-08-11T18:14:59.186Z,102239.53
2022-08-11T18:17:46.021Z,102241.31
2022-08-11T18:20:31.248Z,102242.16
2022-08-11T18:23:19.542Z,102247.22
2022-08-11T18:26:07.586Z,102246.53
2022-08-11T18:28:57.942Z,102254.22
2022-08-11T18:31:44.594Z,102248.59
2022-08-11T18:34:38.985Z,102246.47
2022-08-11T18:37:29.497Z,102253.88
2022-08-11T18:40:18.369Z,102256.69
2022-08-11T18:43:06.904Z,102261.31
2022-08-11T18:46:07.077Z,102271.34
2022-08-11T18:48:55.390Z,102269.25
2022-08-11T18:51:44.019Z,102267.41
2022-08-11T18:54:30.941Z,102260.94
2022-08-11T18:57:19.698Z,102266.16
2022-08-11T19:00:07.109Z,102271.81
2022-08-11T19:02:55.524Z,102263.34
2022-08-11T19:06:32.384Z,102278.59
2022-08-11T19:08:52.956Z,102272.34
2022-08-11T19:11:42.744Z,102271.31
2022-08-11T19:14:30.485Z,102270.78
2022-08-11T19:17:44.080Z,102273.88
2022-08-11T19:20:24.695Z,102277.13
2022-08-11T19:23:12.985Z,102285.88
2022-08-11T19:26:01.714Z,102278.50
2022-08-11T19:28:48.714Z,102288.28
2022-08-11T19:31:34.046Z,102283.41
2022-08-11T19:34:21.529Z,102285.84
2022-08-11T19:37:07.133Z,102288.31
2022-08-11T19:39:54.014Z,102286.97
2022-08-11T19:42:41.819Z,102294.78
2022-08-11T19:45:27.546Z,102295.09
2022-08-11T19:48:31.238Z,102293.03
2022-08-11T19:51:18.602Z,102298.56
2022-08-11T19:54:05.886Z,102290.13
2022-08-11T19:56:52.088Z,102292.47
2022-08-11T19:59:39.882Z,102294.19
2022-08-11T20:02:25.215Z,102296.97
2022-08-11T20:05:10.425Z,102295.16
2022-08-11T20:07:56.479Z,102294.03
2022-08-11T20:10:41.682Z,102291.97
2022-08-11T20:13:28.401Z,102290.16
2022-08-11T20:16:17.006Z,102292.94
2022-08-11T20:19:04.461Z,102297.13
2022-08-11T20:21:50.804Z,102298.84
2022-08-11T20:24:36.580Z,102303.88
2022-08-11T20:27:25.311Z,102300.19
2022-08-11T20:30:11.954Z,102305.66
2022-08-11T20:33:00.571Z,102306.28
2022-08-11T20:35:47.966Z,102305.09
2022-08-11T20:38:34.509Z,102306.81
2022-08-11T20:41:21.839Z,102302.03
2022-08-11T20:44:09.784Z,102310.00
2022-08-11T20:50:04.858Z,102313.78
2022-08-11T20:52:50.550Z,102313.41
2022-08-11T20:55:51.275Z,102322.16
2022-08-11T20:59:13.481Z,102312.00
2022-08-11T21:01:45.425Z,102313.72
2022-08-11T21:04:31.041Z,102307.28
2022-08-11T21:07:28.259Z,102307.94
2022-08-11T21:10:22.937Z,102316.66
2022-08-11T21:13:18.207Z,102310.88
2022-08-11T21:16:25.618Z,102308.81
2022-08-11T21:19:18.668Z,102319.44
2022-08-11T21:22:06.320Z,102316.56
2022-08-11T21:24:54.816Z,102314.50
2022-08-11T21:27:42.122Z,102323.25
2022-08-11T21:30:28.431Z,102319.31
2022-08-11T21:33:13.682Z,102318.06
2022-08-11T21:36:01.101Z,102322.47
2022-08-11T21:38:47.606Z,102325.00
2022-08-11T21:41:35.634Z,102315.88
2022-08-11T21:44:22.394Z,102318.16
2022-08-11T21:47:08.701Z,102316.91
2022-08-11T21:49:55.731Z,102321.28
2022-08-11T21:52:41.211Z,102325.44
2022-08-11T21:55:27.985Z,102324.25
2022-08-11T21:58:16.161Z,102328.81
2022-08-11T22:01:02.600Z,102330.25
2022-08-11T22:03:50.347Z,102335.66
2022-08-11T22:06:36.835Z,102328.41
2022-08-11T22:09:22.824Z,102335.47
2022-08-11T22:12:30.073Z,102342.31
2022-08-11T22:15:14.752Z,102340.47
2022-08-11T22:17:59.681Z,102335.06
2022-08-11T22:20:46.002Z,102332.34
2022-08-11T22:23:36.099Z,102340.06
2022-08-11T22:26:24.304Z,102341.69
2022-08-11T22:29:09.573Z,102339.81
2022-08-11T22:31:57.683Z,102341.47
2022-08-11T22:34:52.661Z,102339.81
2022-08-11T22:37:40.283Z,102344.59
2022-08-11T22:40:27.610Z,102340.59
2022-08-11T22:43:12.816Z,102334.09
2022-08-11T22:45:58.222Z,102333.69
2022-08-11T22:48:46.809Z,102330.53
2022-08-11T22:51:33.614Z,102328.59
2022-08-11T22:54:21.030Z,102331.66
2022-08-11T22:57:07.344Z,102323.97
2022-08-11T22:59:54.873Z,102340.28
2022-08-11T23:02:41.280Z,102337.38
2022-08-11T23:05:28.547Z,102338.00
2022-08-11T23:08:14.536Z,102338.56
2022-08-11T23:11:00.386Z,102334.41
2022-08-11T23:13:46.619Z,102330.03
2022-08-11T23:16:32.045Z,102337.09
2022-08-11T23:20:08.790Z,102331.09
2022-08-11T23:22:37.838Z,102338.84
2022-08-11T23:25:32.488Z,102341.34
2022-08-11T23:28:18.952Z,102336.19
2022-08-11T23:31:04.227Z,102336.00
2022-08-11T23:33:49.901Z,102338.50
2022-08-11T23:36:46.542Z,102328.16
2022-08-11T23:39:34.745Z,102339.34
2022-08-11T23:42:21.336Z,102338.16
2022-08-11T23:45:07.269Z,102335.44
2022-08-11T23:47:57.581Z,102330.69
2022-08-11T23:50:43.830Z,102336.91
2022-08-11T23:53:29.726Z,102334.84
2022-08-11T23:56:16.325Z,102340.03
2022-08-11T23:59:02.265Z,102336.94
